KSLE/SLE METAR and TAF weather

Enter ICAO airport designator
Station Type Date Time Source
KSLE METAR 2020/07/04 07:56 UTC NOAA

KSLE 040756Z AUTO 28004KT 10SM BKN034 BKN055 13/08 A3014 RMK AO2 SLP204 T01330083 402390100


Station Type Date Time Source
KSLE Decoded METAR 2020/07/04 07:56 UTC NOAA

SALEM MCNARY FIELD, OR, United States (KSLE) 44-54N 123-00W 59M
Jul 04, 2020 - 03:56 AM EDT / 2020.07.04 0756 UTC
Wind: from the W (280 degrees) at 5 MPH (4 KT):0
Visibility: 10 mile(s):0
Sky conditions: mostly cloudy
Temperature: 55.9 F (13.3 C)
Dew Point: 46.9 F (8.3 C)
Relative Humidity: 71%
Pressure (altimeter): 30.14 in. Hg (1020 hPa)
ob: KSLE 040756Z AUTO 28004KT 10SM BKN034 BKN055 13/08 A3014 RMK AO2 SLP204 T01330083 402390100
cycle: 8

Station Type Date Time Source
KSLE TAF 2020/07/04 06:27 UTC NOAA

TAF KSLE 040525Z 0406/0506 28008KT P6SM SCT045
FM041200 28004KT P6SM SCT025 OVC035
FM042000 20004KT P6SM SCT040
FM050400 27003KT P6SM SCT100

Example: see airport list